sensor_id;sensor_type;location;lat;lon;timestamp;P1;durP1;ratioP1;P2;durP2;ratioP2
23670;SDS011;12012;51.998;7.614;2022-12-29T00:01:44;4.97;;;3.83;;
23670;SDS011;12012;51.998;7.614;2022-12-29T00:04:11;4.10;;;3.70;;
23670;SDS011;12012;51.998;7.614;2022-12-29T00:06:38;5.38;;;3.38;;
23670;SDS011;12012;51.998;7.614;2022-12-29T00:09:04;3.80;;;3.47;;
23670;SDS011;12012;51.998;7.614;2022-12-29T00:11:30;4.35;;;3.20;;
23670;SDS011;12012;51.998;7.614;2022-12-29T00:13:56;3.30;;;2.92;;
23670;SDS011;12012;51.998;7.614;2022-12-29T00:16:44;4.05;;;3.47;;
23670;SDS011;12012;51.998;7.614;2022-12-29T00:19:10;3.08;;;2.53;;
23670;SDS011;12012;51.998;7.614;2022-12-29T00:21:55;5.10;;;2.60;;
23670;SDS011;12012;51.998;7.614;2022-12-29T00:24:39;2.92;;;2.53;;
23670;SDS011;12012;51.998;7.614;2022-12-29T00:27:20;3.15;;;2.50;;
23670;SDS011;12012;51.998;7.614;2022-12-29T00:30:25;2.17;;;1.95;;
23670;SDS011;12012;51.998;7.614;2022-12-29T00:33:12;2.55;;;2.20;;
23670;SDS011;12012;51.998;7.614;2022-12-29T00:36:02;3.38;;;2.33;;
23670;SDS011;12012;51.998;7.614;2022-12-29T00:38:39;3.55;;;2.30;;
23670;SDS011;12012;51.998;7.614;2022-12-29T00:41:29;4.60;;;2.10;;
23670;SDS011;12012;51.998;7.614;2022-12-29T00:44:14;4.63;;;1.98;;
23670;SDS011;12012;51.998;7.614;2022-12-29T00:46:40;2.60;;;2.00;;
23670;SDS011;12012;51.998;7.614;2022-12-29T00:49:08;2.42;;;1.88;;
23670;SDS011;12012;51.998;7.614;2022-12-29T00:51:55;3.10;;;1.63;;
23670;SDS011;12012;51.998;7.614;2022-12-29T00:54:25;2.60;;;1.75;;
23670;SDS011;12012;51.998;7.614;2022-12-29T00:56:52;7.55;;;2.00;;
23670;SDS011;12012;51.998;7.614;2022-12-29T00:59:18;1.60;;;1.50;;
23670;SDS011;12012;51.998;7.614;2022-12-29T01:01:44;2.50;;;1.75;;
23670;SDS011;12012;51.998;7.614;2022-12-29T01:04:10;1.75;;;1.60;;
23670;SDS011;12012;51.998;7.614;2022-12-29T01:06:37;2.00;;;1.70;;
23670;SDS011;12012;51.998;7.614;2022-12-29T01:09:04;1.95;;;1.60;;
23670;SDS011;12012;51.998;7.614;2022-12-29T01:11:49;2.67;;;1.95;;
23670;SDS011;12012;51.998;7.614;2022-12-29T01:14:15;1.60;;;1.50;;
23670;SDS011;12012;51.998;7.614;2022-12-29T01:16:41;1.73;;;1.63;;
23670;SDS011;12012;51.998;7.614;2022-12-29T01:19:07;2.85;;;1.88;;
23670;SDS011;12012;51.998;7.614;2022-12-29T01:21:32;2.65;;;2.00;;
23670;SDS011;12012;51.998;7.614;2022-12-29T01:23:58;2.58;;;2.03;;
23670;SDS011;12012;51.998;7.614;2022-12-29T01:26:24;2.33;;;2.13;;
23670;SDS011;12012;51.998;7.614;2022-12-29T01:28:49;2.85;;;2.15;;
23670;SDS011;12012;51.998;7.614;2022-12-29T01:31:15;2.33;;;2.13;;
23670;SDS011;12012;51.998;7.614;2022-12-29T01:33:41;3.03;;;2.20;;
23670;SDS011;12012;51.998;7.614;2022-12-29T01:36:08;2.70;;;2.50;;
23670;SDS011;12012;51.998;7.614;2022-12-29T01:38:36;2.53;;;2.33;;
23670;SDS011;12012;51.998;7.614;2022-12-29T01:41:03;4.40;;;2.60;;
23670;SDS011;12012;51.998;7.614;2022-12-29T01:43:43;3.10;;;2.80;;
23670;SDS011;12012;51.998;7.614;2022-12-29T01:48:49;4.00;;;2.63;;
23670;SDS011;12012;51.998;7.614;2022-12-29T01:51:23;2.67;;;2.42;;
23670;SDS011;12012;51.998;7.614;2022-12-29T01:53:50;2.67;;;2.47;;
23670;SDS011;12012;51.998;7.614;2022-12-29T01:56:18;4.13;;;2.50;;
23670;SDS011;12012;51.998;7.614;2022-12-29T01:58:47;3.17;;;2.35;;
23670;SDS011;12012;51.998;7.614;2022-12-29T02:01:17;3.22;;;2.58;;
23670;SDS011;12012;51.998;7.614;2022-12-29T02:03:44;3.53;;;2.38;;
23670;SDS011;12012;51.998;7.614;2022-12-29T02:06:12;3.03;;;2.30;;
23670;SDS011;12012;51.998;7.614;2022-12-29T02:08:42;2.78;;;2.28;;
23670;SDS011;12012;51.998;7.614;2022-12-29T02:11:10;2.50;;;2.30;;
23670;SDS011;12012;51.998;7.614;2022-12-29T02:13:36;2.75;;;2.40;;
23670;SDS011;12012;51.998;7.614;2022-12-29T02:27:40;1.60;;;1.50;;
23670;SDS011;12012;51.998;7.614;2022-12-29T02:36:07;1.38;;;1.27;;
23670;SDS011;12012;51.998;7.614;2022-12-29T02:41:32;2.33;;;1.55;;
23670;SDS011;12012;51.998;7.614;2022-12-29T02:47:05;1.92;;;1.20;;
23670;SDS011;12012;51.998;7.614;2022-12-29T02:49:48;1.05;;;0.95;;
23670;SDS011;12012;51.998;7.614;2022-12-29T02:52:20;1.13;;;1.00;;
23670;SDS011;12012;51.998;7.614;2022-12-29T02:54:52;2.45;;;1.23;;
23670;SDS011;12012;51.998;7.614;2022-12-29T02:59:48;1.30;;;1.20;;
23670;SDS011;12012;51.998;7.614;2022-12-29T03:05:06;1.75;;;1.10;;
23670;SDS011;12012;51.998;7.614;2022-12-29T03:10:41;1.25;;;1.10;;
23670;SDS011;12012;51.998;7.614;2022-12-29T03:13:59;1.95;;;1.10;;
23670;SDS011;12012;51.998;7.614;2022-12-29T03:16:32;2.83;;;1.08;;
23670;SDS011;12012;51.998;7.614;2022-12-29T03:19:14;1.63;;;0.90;;
23670;SDS011;12012;51.998;7.614;2022-12-29T03:21:56;1.58;;;0.90;;
23670;SDS011;12012;51.998;7.614;2022-12-29T03:24:44;2.95;;;1.00;;
23670;SDS011;12012;51.998;7.614;2022-12-29T03:27:14;1.20;;;0.88;;
23670;SDS011;12012;51.998;7.614;2022-12-29T03:29:48;1.20;;;0.93;;
23670;SDS011;12012;51.998;7.614;2022-12-29T03:32:21;1.80;;;1.00;;
23670;SDS011;12012;51.998;7.614;2022-12-29T03:34:51;3.45;;;1.00;;
23670;SDS011;12012;51.998;7.614;2022-12-29T03:37:18;3.38;;;1.10;;
23670;SDS011;12012;51.998;7.614;2022-12-29T03:39:48;1.60;;;0.98;;
23670;SDS011;12012;51.998;7.614;2022-12-29T03:42:15;3.17;;;0.82;;
23670;SDS011;12012;51.998;7.614;2022-12-29T03:44:44;1.67;;;1.00;;
23670;SDS011;12012;51.998;7.614;2022-12-29T03:47:11;1.60;;;1.23;;
23670;SDS011;12012;51.998;7.614;2022-12-29T03:49:38;1.73;;;0.80;;
23670;SDS011;12012;51.998;7.614;2022-12-29T03:52:03;2.33;;;1.00;;
23670;SDS011;12012;51.998;7.614;2022-12-29T03:54:29;2.65;;;1.30;;
23670;SDS011;12012;51.998;7.614;2022-12-29T03:56:55;2.05;;;1.00;;
23670;SDS011;12012;51.998;7.614;2022-12-29T03:59:21;3.00;;;1.00;;
23670;SDS011;12012;51.998;7.614;2022-12-29T04:01:47;3.03;;;1.00;;
23670;SDS011;12012;51.998;7.614;2022-12-29T04:04:12;1.27;;;0.90;;
23670;SDS011;12012;51.998;7.614;2022-12-29T04:06:38;1.52;;;1.02;;
23670;SDS011;12012;51.998;7.614;2022-12-29T04:09:04;1.80;;;1.00;;
23670;SDS011;12012;51.998;7.614;2022-12-29T04:11:30;2.08;;;1.45;;
23670;SDS011;12012;51.998;7.614;2022-12-29T04:13:55;2.22;;;1.20;;
23670;SDS011;12012;51.998;7.614;2022-12-29T04:16:21;4.20;;;1.10;;
23670;SDS011;12012;51.998;7.614;2022-12-29T04:18:47;1.50;;;0.93;;
23670;SDS011;12012;51.998;7.614;2022-12-29T04:21:12;2.83;;;1.20;;
23670;SDS011;12012;51.998;7.614;2022-12-29T04:23:38;3.22;;;1.05;;
23670;SDS011;12012;51.998;7.614;2022-12-29T04:26:05;1.85;;;1.13;;
23670;SDS011;12012;51.998;7.614;2022-12-29T04:28:32;1.33;;;1.10;;
23670;SDS011;12012;51.998;7.614;2022-12-29T04:30:58;5.10;;;1.23;;
23670;SDS011;12012;51.998;7.614;2022-12-29T04:33:24;2.47;;;1.00;;
23670;SDS011;12012;51.998;7.614;2022-12-29T04:35:50;2.83;;;1.00;;
23670;SDS011;12012;51.998;7.614;2022-12-29T04:38:18;3.05;;;1.10;;
23670;SDS011;12012;51.998;7.614;2022-12-29T04:40:43;3.15;;;1.10;;
23670;SDS011;12012;51.998;7.614;2022-12-29T04:43:09;1.73;;;1.30;;
23670;SDS011;12012;51.998;7.614;2022-12-29T04:45:35;1.90;;;1.30;;
23670;SDS011;12012;51.998;7.614;2022-12-29T04:48:01;1.75;;;1.45;;
23670;SDS011;12012;51.998;7.614;2022-12-29T04:50:27;2.50;;;1.63;;
23670;SDS011;12012;51.998;7.614;2022-12-29T04:52:53;2.20;;;1.30;;
23670;SDS011;12012;51.998;7.614;2022-12-29T04:55:18;4.45;;;1.00;;
23670;SDS011;12012;51.998;7.614;2022-12-29T04:57:44;1.55;;;0.88;;
23670;SDS011;12012;51.998;7.614;2022-12-29T05:00:10;3.35;;;1.20;;
23670;SDS011;12012;51.998;7.614;2022-12-29T05:02:36;3.47;;;1.00;;
23670;SDS011;12012;51.998;7.614;2022-12-29T05:05:02;1.83;;;0.70;;
23670;SDS011;12012;51.998;7.614;2022-12-29T05:07:28;0.50;;;0.50;;
23670;SDS011;12012;51.998;7.614;2022-12-29T05:09:54;0.75;;;0.40;;
23670;SDS011;12012;51.998;7.614;2022-12-29T05:12:19;1.38;;;0.60;;
23670;SDS011;12012;51.998;7.614;2022-12-29T05:14:45;2.40;;;0.32;;
23670;SDS011;12012;51.998;7.614;2022-12-29T05:17:10;1.92;;;0.40;;
23670;SDS011;12012;51.998;7.614;2022-12-29T05:19:36;0.32;;;0.30;;
23670;SDS011;12012;51.998;7.614;2022-12-29T05:22:03;2.97;;;0.80;;
23670;SDS011;12012;51.998;7.614;2022-12-29T05:24:28;1.92;;;0.60;;
23670;SDS011;12012;51.998;7.614;2022-12-29T05:26:54;2.40;;;0.65;;
23670;SDS011;12012;51.998;7.614;2022-12-29T05:29:20;2.33;;;0.50;;
23670;SDS011;12012;51.998;7.614;2022-12-29T05:31:45;1.00;;;0.40;;
23670;SDS011;12012;51.998;7.614;2022-12-29T05:34:11;1.38;;;0.50;;
23670;SDS011;12012;51.998;7.614;2022-12-29T05:36:36;2.03;;;0.65;;
23670;SDS011;12012;51.998;7.614;2022-12-29T05:39:02;1.38;;;0.50;;
23670;SDS011;12012;51.998;7.614;2022-12-29T05:41:28;2.38;;;0.50;;
23670;SDS011;12012;51.998;7.614;2022-12-29T05:43:54;1.85;;;0.55;;
23670;SDS011;12012;51.998;7.614;2022-12-29T05:46:19;1.85;;;0.45;;
23670;SDS011;12012;51.998;7.614;2022-12-29T05:48:45;4.57;;;0.57;;
23670;SDS011;12012;51.998;7.614;2022-12-29T05:51:11;3.25;;;0.50;;
23670;SDS011;12012;51.998;7.614;2022-12-29T05:53:36;2.30;;;0.60;;
23670;SDS011;12012;51.998;7.614;2022-12-29T05:56:02;1.95;;;0.57;;
23670;SDS011;12012;51.998;7.614;2022-12-29T05:58:28;1.52;;;0.50;;
23670;SDS011;12012;51.998;7.614;2022-12-29T06:00:53;3.03;;;0.60;;
23670;SDS011;12012;51.998;7.614;2022-12-29T06:03:19;3.60;;;0.75;;
23670;SDS011;12012;51.998;7.614;2022-12-29T06:05:45;3.97;;;0.55;;
23670;SDS011;12012;51.998;7.614;2022-12-29T06:08:11;4.55;;;0.68;;
23670;SDS011;12012;51.998;7.614;2022-12-29T06:10:37;4.10;;;0.70;;
23670;SDS011;12012;51.998;7.614;2022-12-29T06:13:02;1.38;;;0.70;;
23670;SDS011;12012;51.998;7.614;2022-12-29T06:15:30;4.72;;;0.70;;
23670;SDS011;12012;51.998;7.614;2022-12-29T06:17:56;4.07;;;0.60;;
23670;SDS011;12012;51.998;7.614;2022-12-29T06:20:22;5.45;;;0.80;;
23670;SDS011;12012;51.998;7.614;2022-12-29T06:22:47;2.85;;;0.73;;
23670;SDS011;12012;51.998;7.614;2022-12-29T06:25:14;3.92;;;0.80;;
23670;SDS011;12012;51.998;7.614;2022-12-29T06:27:41;5.72;;;0.90;;
23670;SDS011;12012;51.998;7.614;2022-12-29T06:30:07;2.13;;;0.47;;
23670;SDS011;12012;51.998;7.614;2022-12-29T06:32:34;4.10;;;0.82;;
23670;SDS011;12012;51.998;7.614;2022-12-29T06:34:59;4.93;;;0.73;;
23670;SDS011;12012;51.998;7.614;2022-12-29T06:37:25;3.50;;;0.63;;
23670;SDS011;12012;51.998;7.614;2022-12-29T06:39:50;3.28;;;0.70;;
23670;SDS011;12012;51.998;7.614;2022-12-29T06:42:16;4.85;;;0.90;;
23670;SDS011;12012;51.998;7.614;2022-12-29T06:44:42;4.10;;;0.90;;
23670;SDS011;12012;51.998;7.614;2022-12-29T06:47:07;3.13;;;0.80;;
23670;SDS011;12012;51.998;7.614;2022-12-29T06:49:33;4.10;;;0.80;;
23670;SDS011;12012;51.998;7.614;2022-12-29T06:51:58;3.90;;;1.10;;
23670;SDS011;12012;51.998;7.614;2022-12-29T06:54:25;2.95;;;0.90;;
23670;SDS011;12012;51.998;7.614;2022-12-29T06:56:51;3.05;;;0.80;;
23670;SDS011;12012;51.998;7.614;2022-12-29T06:59:17;7.65;;;1.52;;
23670;SDS011;12012;51.998;7.614;2022-12-29T07:01:42;3.22;;;1.10;;
23670;SDS011;12012;51.998;7.614;2022-12-29T07:04:08;3.47;;;0.98;;
23670;SDS011;12012;51.998;7.614;2022-12-29T07:06:33;6.47;;;1.10;;
23670;SDS011;12012;51.998;7.614;2022-12-29T07:08:59;5.57;;;1.25;;
23670;SDS011;12012;51.998;7.614;2022-12-29T07:11:25;4.70;;;1.20;;
23670;SDS011;12012;51.998;7.614;2022-12-29T07:13:50;4.80;;;1.17;;
23670;SDS011;12012;51.998;7.614;2022-12-29T07:16:16;6.82;;;1.38;;
23670;SDS011;12012;51.998;7.614;2022-12-29T07:18:42;4.55;;;1.30;;
23670;SDS011;12012;51.998;7.614;2022-12-29T07:21:08;6.15;;;1.23;;
23670;SDS011;12012;51.998;7.614;2022-12-29T07:23:33;9.32;;;2.55;;
23670;SDS011;12012;51.998;7.614;2022-12-29T07:26:03;5.25;;;1.20;;
23670;SDS011;12012;51.998;7.614;2022-12-29T07:28:31;5.53;;;1.60;;
23670;SDS011;12012;51.998;7.614;2022-12-29T07:30:57;5.18;;;1.35;;
23670;SDS011;12012;51.998;7.614;2022-12-29T07:33:23;5.05;;;1.45;;
23670;SDS011;12012;51.998;7.614;2022-12-29T07:35:49;5.80;;;1.20;;
23670;SDS011;12012;51.998;7.614;2022-12-29T07:38:15;5.07;;;1.25;;
23670;SDS011;12012;51.998;7.614;2022-12-29T07:40:41;6.28;;;1.48;;
23670;SDS011;12012;51.998;7.614;2022-12-29T07:43:07;7.32;;;1.40;;
23670;SDS011;12012;51.998;7.614;2022-12-29T07:45:33;9.88;;;1.75;;
23670;SDS011;12012;51.998;7.614;2022-12-29T07:47:58;4.60;;;1.27;;
23670;SDS011;12012;51.998;7.614;2022-12-29T07:50:24;7.95;;;1.25;;
23670;SDS011;12012;51.998;7.614;2022-12-29T07:52:49;7.00;;;1.38;;
23670;SDS011;12012;51.998;7.614;2022-12-29T07:55:15;7.20;;;1.40;;
23670;SDS011;12012;51.998;7.614;2022-12-29T07:57:41;3.45;;;1.02;;
23670;SDS011;12012;51.998;7.614;2022-12-29T08:00:07;8.13;;;1.33;;
23670;SDS011;12012;51.998;7.614;2022-12-29T08:02:34;5.47;;;1.45;;
23670;SDS011;12012;51.998;7.614;2022-12-29T08:05:00;5.22;;;1.63;;
23670;SDS011;12012;51.998;7.614;2022-12-29T08:07:25;4.50;;;1.30;;
23670;SDS011;12012;51.998;7.614;2022-12-29T08:09:51;5.28;;;1.20;;
23670;SDS011;12012;51.998;7.614;2022-12-29T08:12:17;4.60;;;1.30;;
23670;SDS011;12012;51.998;7.614;2022-12-29T08:14:43;3.30;;;1.02;;
23670;SDS011;12012;51.998;7.614;2022-12-29T08:17:08;7.32;;;1.50;;
23670;SDS011;12012;51.998;7.614;2022-12-29T08:19:35;8.68;;;1.63;;
23670;SDS011;12012;51.998;7.614;2022-12-29T08:22:01;8.15;;;1.73;;
23670;SDS011;12012;51.998;7.614;2022-12-29T08:24:26;8.50;;;1.60;;
23670;SDS011;12012;51.998;7.614;2022-12-29T08:26:52;6.82;;;1.30;;
23670;SDS011;12012;51.998;7.614;2022-12-29T08:29:17;7.05;;;1.38;;
23670;SDS011;12012;51.998;7.614;2022-12-29T08:31:44;6.88;;;1.50;;
23670;SDS011;12012;51.998;7.614;2022-12-29T08:34:10;6.53;;;1.50;;
23670;SDS011;12012;51.998;7.614;2022-12-29T08:36:35;4.30;;;1.60;;
23670;SDS011;12012;51.998;7.614;2022-12-29T08:39:01;3.75;;;1.13;;
23670;SDS011;12012;51.998;7.614;2022-12-29T08:41:27;8.10;;;1.30;;
23670;SDS011;12012;51.998;7.614;2022-12-29T08:43:53;5.30;;;1.33;;
23670;SDS011;12012;51.998;7.614;2022-12-29T08:46:19;7.40;;;1.05;;
23670;SDS011;12012;51.998;7.614;2022-12-29T08:48:44;4.15;;;1.20;;
23670;SDS011;12012;51.998;7.614;2022-12-29T08:51:10;4.45;;;1.42;;
23670;SDS011;12012;51.998;7.614;2022-12-29T08:53:36;6.05;;;1.42;;
23670;SDS011;12012;51.998;7.614;2022-12-29T08:56:01;11.23;;;2.55;;
23670;SDS011;12012;51.998;7.614;2022-12-29T08:58:27;6.40;;;1.15;;
23670;SDS011;12012;51.998;7.614;2022-12-29T09:00:53;4.38;;;1.25;;
23670;SDS011;12012;51.998;7.614;2022-12-29T09:03:19;6.90;;;1.50;;
23670;SDS011;12012;51.998;7.614;2022-12-29T09:05:47;5.55;;;1.70;;
23670;SDS011;12012;51.998;7.614;2022-12-29T09:08:14;7.93;;;1.50;;
23670;SDS011;12012;51.998;7.614;2022-12-29T09:10:39;5.85;;;1.30;;
23670;SDS011;12012;51.998;7.614;2022-12-29T09:13:05;8.20;;;1.40;;
23670;SDS011;12012;51.998;7.614;2022-12-29T09:15:30;7.63;;;1.40;;
23670;SDS011;12012;51.998;7.614;2022-12-29T09:17:56;8.82;;;1.85;;
23670;SDS011;12012;51.998;7.614;2022-12-29T09:20:22;6.03;;;1.27;;
23670;SDS011;12012;51.998;7.614;2022-12-29T09:22:47;6.60;;;1.40;;
23670;SDS011;12012;51.998;7.614;2022-12-29T09:25:14;10.32;;;1.67;;
23670;SDS011;12012;51.998;7.614;2022-12-29T09:27:40;7.38;;;1.52;;
23670;SDS011;12012;51.998;7.614;2022-12-29T09:30:06;9.90;;;1.67;;
23670;SDS011;12012;51.998;7.614;2022-12-29T09:32:33;7.38;;;1.60;;
23670;SDS011;12012;51.998;7.614;2022-12-29T09:34:59;4.38;;;1.13;;
23670;SDS011;12012;51.998;7.614;2022-12-29T09:37:25;9.07;;;1.60;;
23670;SDS011;12012;51.998;7.614;2022-12-29T09:39:51;7.68;;;2.00;;
23670;SDS011;12012;51.998;7.614;2022-12-29T09:42:23;8.40;;;1.85;;
23670;SDS011;12012;51.998;7.614;2022-12-29T09:45:15;10.63;;;1.88;;
23670;SDS011;12012;51.998;7.614;2022-12-29T09:47:45;9.18;;;1.92;;
23670;SDS011;12012;51.998;7.614;2022-12-29T09:50:28;11.60;;;1.73;;
23670;SDS011;12012;51.998;7.614;2022-12-29T09:53:07;6.05;;;1.40;;
23670;SDS011;12012;51.998;7.614;2022-12-29T09:55:40;7.65;;;1.77;;
23670;SDS011;12012;51.998;7.614;2022-12-29T10:01:01;8.98;;;1.80;;
23670;SDS011;12012;51.998;7.614;2022-12-29T10:03:36;9.32;;;1.60;;
23670;SDS011;12012;51.998;7.614;2022-12-29T10:06:13;6.68;;;1.52;;
23670;SDS011;12012;51.998;7.614;2022-12-29T10:11:41;12.30;;;1.80;;
23670;SDS011;12012;51.998;7.614;2022-12-29T10:14:37;7.43;;;1.40;;
23670;SDS011;12012;51.998;7.614;2022-12-29T10:25:38;5.90;;;1.70;;
23670;SDS011;12012;51.998;7.614;2022-12-29T10:28:11;6.55;;;1.40;;
23670;SDS011;12012;51.998;7.614;2022-12-29T10:30:48;6.82;;;1.60;;
23670;SDS011;12012;51.998;7.614;2022-12-29T10:33:18;8.30;;;1.65;;
23670;SDS011;12012;51.998;7.614;2022-12-29T10:35:48;9.52;;;1.50;;
23670;SDS011;12012;51.998;7.614;2022-12-29T10:43:47;7.70;;;2.20;;
23670;SDS011;12012;51.998;7.614;2022-12-29T10:46:36;8.48;;;2.00;;
23670;SDS011;12012;51.998;7.614;2022-12-29T10:49:02;9.73;;;2.17;;
23670;SDS011;12012;51.998;7.614;2022-12-29T10:51:30;9.55;;;1.80;;
23670;SDS011;12012;51.998;7.614;2022-12-29T10:59:18;8.15;;;1.70;;
23670;SDS011;12012;51.998;7.614;2022-12-29T11:01:53;6.30;;;1.58;;
23670;SDS011;12012;51.998;7.614;2022-12-29T11:07:29;8.45;;;1.88;;
23670;SDS011;12012;51.998;7.614;2022-12-29T11:09:55;11.10;;;2.05;;
23670;SDS011;12012;51.998;7.614;2022-12-29T11:12:54;7.45;;;1.85;;
23670;SDS011;12012;51.998;7.614;2022-12-29T11:15:25;9.52;;;1.65;;
23670;SDS011;12012;51.998;7.614;2022-12-29T11:17:52;6.28;;;1.63;;
23670;SDS011;12012;51.998;7.614;2022-12-29T11:22:55;7.68;;;2.17;;
23670;SDS011;12012;51.998;7.614;2022-12-29T11:25:21;5.50;;;1.90;;
23670;SDS011;12012;51.998;7.614;2022-12-29T11:27:57;6.32;;;1.90;;
23670;SDS011;12012;51.998;7.614;2022-12-29T11:30:30;12.23;;;2.85;;
23670;SDS011;12012;51.998;7.614;2022-12-29T11:32:56;10.52;;;2.20;;
23670;SDS011;12012;51.998;7.614;2022-12-29T11:35:30;8.27;;;1.90;;
23670;SDS011;12012;51.998;7.614;2022-12-29T11:37:56;6.68;;;1.85;;
23670;SDS011;12012;51.998;7.614;2022-12-29T11:40:23;6.03;;;1.65;;
23670;SDS011;12012;51.998;7.614;2022-12-29T11:43:02;10.23;;;2.20;;
23670;SDS011;12012;51.998;7.614;2022-12-29T11:45:33;8.57;;;1.75;;
23670;SDS011;12012;51.998;7.614;2022-12-29T11:48:10;8.32;;;1.98;;
23670;SDS011;12012;51.998;7.614;2022-12-29T11:50:42;6.78;;;1.80;;
23670;SDS011;12012;51.998;7.614;2022-12-29T11:53:22;6.85;;;1.63;;
23670;SDS011;12012;51.998;7.614;2022-12-29T11:55:51;8.68;;;2.58;;
23670;SDS011;12012;51.998;7.614;2022-12-29T11:58:30;4.40;;;1.17;;
23670;SDS011;12012;51.998;7.614;2022-12-29T12:01:00;10.05;;;2.05;;
23670;SDS011;12012;51.998;7.614;2022-12-29T12:03:36;8.32;;;1.65;;
23670;SDS011;12012;51.998;7.614;2022-12-29T12:06:10;6.30;;;1.70;;
23670;SDS011;12012;51.998;7.614;2022-12-29T12:08:46;7.68;;;1.48;;
23670;SDS011;12012;51.998;7.614;2022-12-29T12:11:32;8.13;;;1.75;;
23670;SDS011;12012;51.998;7.614;2022-12-29T12:16:41;5.10;;;1.33;;
23670;SDS011;12012;51.998;7.614;2022-12-29T12:19:34;7.10;;;1.58;;
23670;SDS011;12012;51.998;7.614;2022-12-29T12:25:03;5.23;;;1.23;;
23670;SDS011;12012;51.998;7.614;2022-12-29T12:33:01;8.10;;;1.27;;
23670;SDS011;12012;51.998;7.614;2022-12-29T12:41:25;8.57;;;1.80;;
23670;SDS011;12012;51.998;7.614;2022-12-29T12:52:41;8.52;;;1.75;;
23670;SDS011;12012;51.998;7.614;2022-12-29T12:55:29;8.23;;;1.90;;
23670;SDS011;12012;51.998;7.614;2022-12-29T13:03:40;7.35;;;2.08;;
23670;SDS011;12012;51.998;7.614;2022-12-29T13:06:26;7.90;;;1.90;;
23670;SDS011;12012;51.998;7.614;2022-12-29T13:09:22;5.47;;;1.80;;
23670;SDS011;12012;51.998;7.614;2022-12-29T13:12:10;5.85;;;1.67;;
23670;SDS011;12012;51.998;7.614;2022-12-29T13:17:49;4.53;;;1.40;;
23670;SDS011;12012;51.998;7.614;2022-12-29T13:20:27;6.28;;;1.73;;
23670;SDS011;12012;51.998;7.614;2022-12-29T13:28:49;8.40;;;1.98;;
23670;SDS011;12012;51.998;7.614;2022-12-29T13:31:38;6.20;;;1.55;;
23670;SDS011;12012;51.998;7.614;2022-12-29T13:36:59;9.02;;;1.80;;
23670;SDS011;12012;51.998;7.614;2022-12-29T13:39:38;7.53;;;1.50;;
23670;SDS011;12012;51.998;7.614;2022-12-29T13:42:10;7.15;;;1.63;;
23670;SDS011;12012;51.998;7.614;2022-12-29T13:44:48;9.20;;;1.63;;
23670;SDS011;12012;51.998;7.614;2022-12-29T13:47:25;8.05;;;1.65;;
23670;SDS011;12012;51.998;7.614;2022-12-29T13:49:54;7.32;;;1.63;;
23670;SDS011;12012;51.998;7.614;2022-12-29T13:52:32;5.07;;;1.42;;
23670;SDS011;12012;51.998;7.614;2022-12-29T14:00:51;9.75;;;1.85;;
23670;SDS011;12012;51.998;7.614;2022-12-29T14:06:19;10.70;;;2.10;;
23670;SDS011;12012;51.998;7.614;2022-12-29T14:08:45;8.40;;;1.45;;
23670;SDS011;12012;51.998;7.614;2022-12-29T14:11:14;8.82;;;1.80;;
23670;SDS011;12012;51.998;7.614;2022-12-29T14:13:43;13.77;;;2.28;;
23670;SDS011;12012;51.998;7.614;2022-12-29T14:16:21;10.75;;;2.13;;
23670;SDS011;12012;51.998;7.614;2022-12-29T14:18:49;6.60;;;1.52;;
23670;SDS011;12012;51.998;7.614;2022-12-29T14:23:45;12.02;;;2.30;;
23670;SDS011;12012;51.998;7.614;2022-12-29T14:26:13;7.85;;;2.25;;
23670;SDS011;12012;51.998;7.614;2022-12-29T14:28:42;12.18;;;2.30;;
23670;SDS011;12012;51.998;7.614;2022-12-29T14:39:26;7.97;;;1.77;;
23670;SDS011;12012;51.998;7.614;2022-12-29T14:42:04;12.05;;;2.65;;
23670;SDS011;12012;51.998;7.614;2022-12-29T14:44:30;12.18;;;2.20;;
23670;SDS011;12012;51.998;7.614;2022-12-29T14:46:57;9.82;;;1.88;;
23670;SDS011;12012;51.998;7.614;2022-12-29T14:49:27;10.73;;;2.80;;
23670;SDS011;12012;51.998;7.614;2022-12-29T14:54:45;8.95;;;2.55;;
23670;SDS011;12012;51.998;7.614;2022-12-29T14:57:41;13.30;;;2.70;;
23670;SDS011;12012;51.998;7.614;2022-12-29T15:05:10;11.97;;;2.57;;
23670;SDS011;12012;51.998;7.614;2022-12-29T15:07:49;12.95;;;2.42;;
23670;SDS011;12012;51.998;7.614;2022-12-29T15:10:16;8.27;;;2.45;;
23670;SDS011;12012;51.998;7.614;2022-12-29T15:12:49;12.20;;;2.38;;
23670;SDS011;12012;51.998;7.614;2022-12-29T15:15:20;10.05;;;2.30;;
23670;SDS011;12012;51.998;7.614;2022-12-29T15:17:47;9.82;;;2.53;;
23670;SDS011;12012;51.998;7.614;2022-12-29T15:20:34;7.97;;;2.00;;
23670;SDS011;12012;51.998;7.614;2022-12-29T15:25:33;7.07;;;2.58;;
23670;SDS011;12012;51.998;7.614;2022-12-29T15:28:02;12.38;;;2.38;;
23670;SDS011;12012;51.998;7.614;2022-12-29T15:30:32;10.75;;;2.20;;
23670;SDS011;12012;51.998;7.614;2022-12-29T15:32:58;9.25;;;2.25;;
23670;SDS011;12012;51.998;7.614;2022-12-29T15:37:57;11.10;;;2.40;;
23670;SDS011;12012;51.998;7.614;2022-12-29T15:42:58;7.30;;;1.73;;
23670;SDS011;12012;51.998;7.614;2022-12-29T15:45:27;13.90;;;2.38;;
23670;SDS011;12012;51.998;7.614;2022-12-29T15:47:57;8.75;;;2.10;;
23670;SDS011;12012;51.998;7.614;2022-12-29T15:50:27;11.05;;;2.28;;
23670;SDS011;12012;51.998;7.614;2022-12-29T15:55:25;11.45;;;2.63;;
23670;SDS011;12012;51.998;7.614;2022-12-29T15:57:57;8.15;;;2.13;;
23670;SDS011;12012;51.998;7.614;2022-12-29T16:00:26;8.60;;;2.40;;
23670;SDS011;12012;51.998;7.614;2022-12-29T16:02:57;12.77;;;2.08;;
23670;SDS011;12012;51.998;7.614;2022-12-29T16:05:31;4.45;;;1.83;;
23670;SDS011;12012;51.998;7.614;2022-12-29T16:07:58;7.75;;;2.13;;
23670;SDS011;12012;51.998;7.614;2022-12-29T16:10:31;7.55;;;1.60;;
23670;SDS011;12012;51.998;7.614;2022-12-29T16:15:46;6.18;;;1.50;;
23670;SDS011;12012;51.998;7.614;2022-12-29T16:18:20;5.78;;;1.30;;
23670;SDS011;12012;51.998;7.614;2022-12-29T16:20:52;7.40;;;1.20;;
23670;SDS011;12012;51.998;7.614;2022-12-29T16:23:20;3.88;;;1.30;;
23670;SDS011;12012;51.998;7.614;2022-12-29T16:25:49;6.88;;;2.38;;
23670;SDS011;12012;51.998;7.614;2022-12-29T16:28:20;7.90;;;1.80;;
23670;SDS011;12012;51.998;7.614;2022-12-29T16:30:57;4.07;;;1.50;;
23670;SDS011;12012;51.998;7.614;2022-12-29T16:33:51;5.10;;;1.60;;
23670;SDS011;12012;51.998;7.614;2022-12-29T16:38:49;5.22;;;1.70;;
23670;SDS011;12012;51.998;7.614;2022-12-29T16:41:30;9.38;;;2.10;;
23670;SDS011;12012;51.998;7.614;2022-12-29T16:44:15;10.55;;;2.35;;
23670;SDS011;12012;51.998;7.614;2022-12-29T16:46:44;5.45;;;2.30;;
23670;SDS011;12012;51.998;7.614;2022-12-29T16:49:31;9.98;;;3.08;;
23670;SDS011;12012;51.998;7.614;2022-12-29T16:51:58;12.18;;;4.40;;
23670;SDS011;12012;51.998;7.614;2022-12-29T16:54:24;10.48;;;3.83;;
23670;SDS011;12012;51.998;7.614;2022-12-29T16:56:54;17.80;;;3.90;;
23670;SDS011;12012;51.998;7.614;2022-12-29T17:02:10;12.88;;;3.60;;
23670;SDS011;12012;51.998;7.614;2022-12-29T17:04:39;11.68;;;3.50;;
23670;SDS011;12012;51.998;7.614;2022-12-29T17:07:13;12.35;;;3.47;;
23670;SDS011;12012;51.998;7.614;2022-12-29T17:09:42;10.38;;;3.42;;
23670;SDS011;12012;51.998;7.614;2022-12-29T17:12:08;12.73;;;3.53;;
23670;SDS011;12012;51.998;7.614;2022-12-29T17:14:52;9.25;;;2.80;;
23670;SDS011;12012;51.998;7.614;2022-12-29T17:20:18;9.82;;;2.92;;
23670;SDS011;12012;51.998;7.614;2022-12-29T17:22:48;11.52;;;3.15;;
23670;SDS011;12012;51.998;7.614;2022-12-29T17:25:16;10.32;;;2.33;;
23670;SDS011;12012;51.998;7.614;2022-12-29T17:27:58;11.23;;;2.88;;
23670;SDS011;12012;51.998;7.614;2022-12-29T17:30:29;11.50;;;3.03;;
23670;SDS011;12012;51.998;7.614;2022-12-29T17:33:02;6.55;;;2.70;;
23670;SDS011;12012;51.998;7.614;2022-12-29T17:35:29;8.15;;;2.70;;
23670;SDS011;12012;51.998;7.614;2022-12-29T17:37:55;9.05;;;2.22;;
23670;SDS011;12012;51.998;7.614;2022-12-29T17:40:21;14.60;;;2.53;;